sensor_id;sensor_type;location;lat;lon;timestamp;pressure;altitude;pressure_sealevel;temperature;humidity
8061;BME280;4073;42.626;25.386;2023-02-18T00:00:10;97845.06;;;4.66;69.82
8061;BME280;4073;42.626;25.386;2023-02-18T00:02:36;97837.50;;;4.69;69.47
8061;BME280;4073;42.626;25.386;2023-02-18T00:05:02;97839.56;;;4.67;69.36
8061;BME280;4073;42.626;25.386;2023-02-18T00:07:33;97831.13;;;4.52;70.52
8061;BME280;4073;42.626;25.386;2023-02-18T00:09:59;97841.47;;;4.60;70.47
8061;BME280;4073;42.626;25.386;2023-02-18T00:12:25;97827.91;;;4.50;70.24
8061;BME280;4073;42.626;25.386;2023-02-18T00:14:50;97833.34;;;4.55;70.37
8061;BME280;4073;42.626;25.386;2023-02-18T00:17:16;97827.50;;;4.47;70.86
8061;BME280;4073;42.626;25.386;2023-02-18T00:19:41;97833.09;;;4.39;71.44
8061;BME280;4073;42.626;25.386;2023-02-18T00:22:06;97822.88;;;4.42;71.18
8061;BME280;4073;42.626;25.386;2023-02-18T00:24:32;97807.47;;;4.33;71.56
8061;BME280;4073;42.626;25.386;2023-02-18T00:26:57;97810.16;;;4.26;71.94
8061;BME280;4073;42.626;25.386;2023-02-18T00:29:23;97827.06;;;4.25;72.62
8061;BME280;4073;42.626;25.386;2023-02-18T00:31:48;97808.72;;;4.06;73.52
8061;BME280;4073;42.626;25.386;2023-02-18T00:34:13;97813.06;;;3.94;74.21
8061;BME280;4073;42.626;25.386;2023-02-18T00:36:39;97804.97;;;3.89;75.00
8061;BME280;4073;42.626;25.386;2023-02-18T00:39:07;97807.22;;;3.85;74.86
8061;BME280;4073;42.626;25.386;2023-02-18T00:41:33;97796.97;;;3.71;74.88
8061;BME280;4073;42.626;25.386;2023-02-18T00:43:59;97797.75;;;3.71;75.06
8061;BME280;4073;42.626;25.386;2023-02-18T00:46:25;97793.56;;;3.64;75.58
8061;BME280;4073;42.626;25.386;2023-02-18T00:48:50;97794.53;;;3.69;75.42
8061;BME280;4073;42.626;25.386;2023-02-18T00:51:16;97800.03;;;3.68;75.90
8061;BME280;4073;42.626;25.386;2023-02-18T00:53:41;97781.09;;;3.71;75.26
8061;BME280;4073;42.626;25.386;2023-02-18T00:56:07;97785.06;;;3.86;75.12
8061;BME280;4073;42.626;25.386;2023-02-18T00:58:34;97780.53;;;3.93;74.65
8061;BME280;4073;42.626;25.386;2023-02-18T01:01:00;97776.56;;;4.02;74.24
8061;BME280;4073;42.626;25.386;2023-02-18T01:03:26;97773.06;;;4.08;73.78
8061;BME280;4073;42.626;25.386;2023-02-18T01:05:52;97779.31;;;4.14;73.87
8061;BME280;4073;42.626;25.386;2023-02-18T01:08:18;97772.00;;;4.16;73.67
8061;BME280;4073;42.626;25.386;2023-02-18T01:10:46;97767.56;;;4.10;73.37
8061;BME280;4073;42.626;25.386;2023-02-18T01:13:13;97769.34;;;4.16;73.42
8061;BME280;4073;42.626;25.386;2023-02-18T01:15:40;97768.09;;;4.18;73.17
8061;BME280;4073;42.626;25.386;2023-02-18T01:18:06;97766.31;;;4.12;73.65
8061;BME280;4073;42.626;25.386;2023-02-18T01:20:36;97769.13;;;4.17;73.35
8061;BME280;4073;42.626;25.386;2023-02-18T01:23:03;97755.69;;;4.19;73.14
8061;BME280;4073;42.626;25.386;2023-02-18T01:25:29;97751.16;;;4.26;73.07
8061;BME280;4073;42.626;25.386;2023-02-18T01:27:55;97748.72;;;4.24;72.93
8061;BME280;4073;42.626;25.386;2023-02-18T01:30:20;97755.69;;;4.19;73.14
8061;BME280;4073;42.626;25.386;2023-02-18T01:32:46;97747.97;;;4.17;73.00
8061;BME280;4073;42.626;25.386;2023-02-18T01:35:16;97731.25;;;4.17;72.86
8061;BME280;4073;42.626;25.386;2023-02-18T01:37:42;97734.00;;;4.10;72.97
8061;BME280;4073;42.626;25.386;2023-02-18T01:40:10;97741.53;;;4.07;73.27
8061;BME280;4073;42.626;25.386;2023-02-18T01:42:36;97736.66;;;4.04;73.42
8061;BME280;4073;42.626;25.386;2023-02-18T01:48:06;97730.47;;;3.92;73.82
8061;BME280;4073;42.626;25.386;2023-02-18T01:50:36;97735.22;;;3.83;74.47
8061;BME280;4073;42.626;25.386;2023-02-18T01:53:03;97719.44;;;3.70;75.03
8061;BME280;4073;42.626;25.386;2023-02-18T01:55:29;97727.22;;;3.65;75.47
8061;BME280;4073;42.626;25.386;2023-02-18T01:57:54;97735.81;;;3.61;76.19
8061;BME280;4073;42.626;25.386;2023-02-18T02:00:20;97740.69;;;3.57;76.35
8061;BME280;4073;42.626;25.386;2023-02-18T02:02:47;97744.84;;;3.47;76.97
8061;BME280;4073;42.626;25.386;2023-02-18T02:05:14;97736.53;;;3.43;76.68
8061;BME280;4073;42.626;25.386;2023-02-18T02:07:41;97734.28;;;3.40;76.93
8061;BME280;4073;42.626;25.386;2023-02-18T02:10:08;97725.59;;;3.33;77.81
8061;BME280;4073;42.626;25.386;2023-02-18T02:12:50;97724.84;;;3.26;78.02
8061;BME280;4073;42.626;25.386;2023-02-18T02:15:42;97730.72;;;3.28;77.94
8061;BME280;4073;42.626;25.386;2023-02-18T02:26:28;97732.44;;;3.10;79.14
8061;BME280;4073;42.626;25.386;2023-02-18T02:37:15;97725.38;;;3.35;77.05
8061;BME280;4073;42.626;25.386;2023-02-18T02:40:06;97723.78;;;3.34;77.12
8061;BME280;4073;42.626;25.386;2023-02-18T02:50:40;97704.66;;;3.38;77.32
8061;BME280;4073;42.626;25.386;2023-02-18T02:53:23;97706.63;;;3.43;77.46
8061;BME280;4073;42.626;25.386;2023-02-18T02:55:50;97707.66;;;3.42;77.57
8061;BME280;4073;42.626;25.386;2023-02-18T02:58:17;97704.25;;;3.35;77.52
8061;BME280;4073;42.626;25.386;2023-02-18T03:03:42;97715.28;;;3.25;78.13
8061;BME280;4073;42.626;25.386;2023-02-18T03:06:27;97710.22;;;3.24;78.06
8061;BME280;4073;42.626;25.386;2023-02-18T03:09:21;97698.81;;;3.23;77.89
8061;BME280;4073;42.626;25.386;2023-02-18T03:14:58;97713.75;;;3.42;76.92
8061;BME280;4073;42.626;25.386;2023-02-18T03:17:56;97698.69;;;3.43;76.63
8061;BME280;4073;42.626;25.386;2023-02-18T03:20:34;97705.63;;;3.44;76.16
8061;BME280;4073;42.626;25.386;2023-02-18T03:23:03;97703.44;;;3.34;76.22
8061;BME280;4073;42.626;25.386;2023-02-18T03:25:32;97700.75;;;3.41;76.57
8061;BME280;4073;42.626;25.386;2023-02-18T03:28:04;97696.94;;;3.37;76.19
8061;BME280;4073;42.626;25.386;2023-02-18T03:30:41;97708.72;;;3.34;76.60
8061;BME280;4073;42.626;25.386;2023-02-18T03:33:10;97724.22;;;3.24;77.36
8061;BME280;4073;42.626;25.386;2023-02-18T03:35:38;97711.47;;;3.15;77.76
8061;BME280;4073;42.626;25.386;2023-02-18T03:38:10;97722.72;;;3.04;77.94
8061;BME280;4073;42.626;25.386;2023-02-18T03:40:37;97723.13;;;3.01;78.68
8061;BME280;4073;42.626;25.386;2023-02-18T03:43:03;97724.53;;;3.03;78.25
8061;BME280;4073;42.626;25.386;2023-02-18T03:45:29;97718.31;;;2.91;79.13
8061;BME280;4073;42.626;25.386;2023-02-18T03:47:54;97731.31;;;2.86;79.74
8061;BME280;4073;42.626;25.386;2023-02-18T03:50:20;97723.81;;;2.83;79.89
8061;BME280;4073;42.626;25.386;2023-02-18T03:52:45;97727.28;;;2.84;80.10
8061;BME280;4073;42.626;25.386;2023-02-18T03:55:11;97735.63;;;2.81;80.45
8061;BME280;4073;42.626;25.386;2023-02-18T03:57:36;97726.91;;;2.73;80.57
8061;BME280;4073;42.626;25.386;2023-02-18T04:00:03;97742.09;;;2.85;80.27
8061;BME280;4073;42.626;25.386;2023-02-18T04:02:30;97722.38;;;2.87;79.91
8061;BME280;4073;42.626;25.386;2023-02-18T04:04:55;97747.53;;;3.03;79.53
8061;BME280;4073;42.626;25.386;2023-02-18T04:07:21;97731.84;;;3.08;78.91
8061;BME280;4073;42.626;25.386;2023-02-18T04:09:46;97721.91;;;3.03;79.93
8061;BME280;4073;42.626;25.386;2023-02-18T04:12:12;97728.22;;;3.02;79.15
8061;BME280;4073;42.626;25.386;2023-02-18T04:14:37;97723.03;;;3.20;77.89
8061;BME280;4073;42.626;25.386;2023-02-18T04:17:03;97714.09;;;3.21;77.50
8061;BME280;4073;42.626;25.386;2023-02-18T04:19:28;97708.25;;;3.13;77.69
8061;BME280;4073;42.626;25.386;2023-02-18T04:21:54;97714.88;;;3.22;77.43
8061;BME280;4073;42.626;25.386;2023-02-18T04:24:19;97702.53;;;3.16;77.86
8061;BME280;4073;42.626;25.386;2023-02-18T04:26:44;97714.69;;;3.23;77.83
8061;BME280;4073;42.626;25.386;2023-02-18T04:29:10;97714.88;;;3.28;77.48
8061;BME280;4073;42.626;25.386;2023-02-18T04:31:35;97697.91;;;3.11;78.08
8061;BME280;4073;42.626;25.386;2023-02-18T04:34:01;97681.16;;;2.86;79.68
8061;BME280;4073;42.626;25.386;2023-02-18T04:36:27;97690.91;;;2.86;80.11
8061;BME280;4073;42.626;25.386;2023-02-18T04:38:52;97678.91;;;2.83;80.08
8061;BME280;4073;42.626;25.386;2023-02-18T04:41:18;97679.34;;;2.80;80.51
8061;BME280;4073;42.626;25.386;2023-02-18T04:43:43;97676.50;;;2.82;79.83
8061;BME280;4073;42.626;25.386;2023-02-18T04:46:08;97672.69;;;2.71;80.70
8061;BME280;4073;42.626;25.386;2023-02-18T04:48:34;97685.84;;;2.78;80.87
8061;BME280;4073;42.626;25.386;2023-02-18T04:51:00;97685.03;;;2.84;80.55
8061;BME280;4073;42.626;25.386;2023-02-18T04:53:25;97656.03;;;2.70;81.10
8061;BME280;4073;42.626;25.386;2023-02-18T04:55:51;97688.75;;;2.69;81.95
8061;BME280;4073;42.626;25.386;2023-02-18T04:58:18;97677.53;;;2.81;81.72
8061;BME280;4073;42.626;25.386;2023-02-18T05:00:44;97677.38;;;2.69;81.84
8061;BME280;4073;42.626;25.386;2023-02-18T05:03:09;97688.72;;;2.76;82.95
8061;BME280;4073;42.626;25.386;2023-02-18T05:05:35;97692.94;;;2.84;82.76
8061;BME280;4073;42.626;25.386;2023-02-18T05:08:01;97691.97;;;2.78;82.76
8061;BME280;4073;42.626;25.386;2023-02-18T05:10:27;97695.16;;;2.87;83.43
8061;BME280;4073;42.626;25.386;2023-02-18T05:12:52;97707.34;;;2.94;83.06
8061;BME280;4073;42.626;25.386;2023-02-18T05:15:17;97701.66;;;2.91;82.89
8061;BME280;4073;42.626;25.386;2023-02-18T05:17:43;97692.28;;;2.95;82.62
8061;BME280;4073;42.626;25.386;2023-02-18T05:20:09;97687.41;;;2.92;83.46
8061;BME280;4073;42.626;25.386;2023-02-18T05:22:35;97686.81;;;2.45;85.46
8061;BME280;4073;42.626;25.386;2023-02-18T05:25:00;97682.44;;;2.70;85.24
8061;BME280;4073;42.626;25.386;2023-02-18T05:27:26;97690.47;;;2.89;84.52
8061;BME280;4073;42.626;25.386;2023-02-18T05:29:51;97699.72;;;3.11;83.26
8061;BME280;4073;42.626;25.386;2023-02-18T05:32:17;97696.94;;;3.30;82.71
8061;BME280;4073;42.626;25.386;2023-02-18T05:34:42;97693.25;;;3.38;82.51
8061;BME280;4073;42.626;25.386;2023-02-18T05:37:07;97699.63;;;3.55;81.51
8061;BME280;4073;42.626;25.386;2023-02-18T05:39:33;97687.41;;;3.60;81.03
8061;BME280;4073;42.626;25.386;2023-02-18T05:41:58;97694.03;;;3.69;80.47
8061;BME280;4073;42.626;25.386;2023-02-18T05:44:24;97690.56;;;3.69;80.48
8061;BME280;4073;42.626;25.386;2023-02-18T05:47:08;97694.81;;;3.76;80.03
8061;BME280;4073;42.626;25.386;2023-02-18T05:49:34;97691.34;;;3.76;79.33
8061;BME280;4073;42.626;25.386;2023-02-18T05:52:01;97693.69;;;3.84;79.54
8061;BME280;4073;42.626;25.386;2023-02-18T05:54:27;97699.44;;;3.81;79.14
8061;BME280;4073;42.626;25.386;2023-02-18T05:56:53;97692.09;;;3.83;79.53
8061;BME280;4073;42.626;25.386;2023-02-18T05:59:19;97686.78;;;3.83;80.72
8061;BME280;4073;42.626;25.386;2023-02-18T06:01:45;97680.72;;;3.82;80.76
8061;BME280;4073;42.626;25.386;2023-02-18T06:04:11;97678.50;;;3.55;81.96
8061;BME280;4073;42.626;25.386;2023-02-18T06:06:37;97676.53;;;3.68;82.31
8061;BME280;4073;42.626;25.386;2023-02-18T06:09:03;97671.38;;;3.80;81.53
8061;BME280;4073;42.626;25.386;2023-02-18T06:11:29;97679.41;;;3.91;80.51
8061;BME280;4073;42.626;25.386;2023-02-18T06:13:54;97669.31;;;4.06;80.26
8061;BME280;4073;42.626;25.386;2023-02-18T06:16:20;97670.41;;;4.17;79.70
8061;BME280;4073;42.626;25.386;2023-02-18T06:18:45;97670.13;;;4.25;79.49
8061;BME280;4073;42.626;25.386;2023-02-18T06:21:11;97658.22;;;4.34;79.06
8061;BME280;4073;42.626;25.386;2023-02-18T06:23:36;97678.06;;;4.43;78.76
8061;BME280;4073;42.626;25.386;2023-02-18T06:26:02;97671.81;;;4.55;78.47
8061;BME280;4073;42.626;25.386;2023-02-18T06:28:27;97670.06;;;4.67;77.04
8061;BME280;4073;42.626;25.386;2023-02-18T06:30:53;97678.78;;;4.86;76.13
8061;BME280;4073;42.626;25.386;2023-02-18T06:33:18;97686.56;;;4.99;75.54
8061;BME280;4073;42.626;25.386;2023-02-18T06:35:59;97664.97;;;5.13;74.66
8061;BME280;4073;42.626;25.386;2023-02-18T06:38:25;97671.41;;;5.17;74.51
8061;BME280;4073;42.626;25.386;2023-02-18T06:40:50;97666.81;;;5.24;74.42
8061;BME280;4073;42.626;25.386;2023-02-18T06:43:16;97667.78;;;5.30;74.87
8061;BME280;4073;42.626;25.386;2023-02-18T06:45:42;97669.75;;;5.34;74.70
8061;BME280;4073;42.626;25.386;2023-02-18T06:48:07;97669.84;;;5.28;74.46
8061;BME280;4073;42.626;25.386;2023-02-18T06:50:33;97672.78;;;5.38;74.03
8061;BME280;4073;42.626;25.386;2023-02-18T06:52:58;97674.84;;;5.47;72.91
8061;BME280;4073;42.626;25.386;2023-02-18T06:55:24;97669.59;;;5.59;72.60
8061;BME280;4073;42.626;25.386;2023-02-18T06:57:50;97654.72;;;5.70;72.41
8061;BME280;4073;42.626;25.386;2023-02-18T07:00:16;97670.22;;;5.84;72.27
8061;BME280;4073;42.626;25.386;2023-02-18T07:02:41;97654.44;;;5.89;72.12
8061;BME280;4073;42.626;25.386;2023-02-18T07:05:07;97664.94;;;6.07;72.01
8061;BME280;4073;42.626;25.386;2023-02-18T07:07:33;97644.97;;;6.16;71.04
8061;BME280;4073;42.626;25.386;2023-02-18T07:09:58;97656.97;;;6.30;69.87
8061;BME280;4073;42.626;25.386;2023-02-18T07:12:24;97666.97;;;6.51;68.49
8061;BME280;4073;42.626;25.386;2023-02-18T07:14:49;97656.09;;;6.53;68.05
8061;BME280;4073;42.626;25.386;2023-02-18T07:17:15;97656.75;;;6.71;67.86
8061;BME280;4073;42.626;25.386;2023-02-18T07:19:40;97653.03;;;6.84;68.37
8061;BME280;4073;42.626;25.386;2023-02-18T07:22:06;97651.56;;;7.04;67.83
8061;BME280;4073;42.626;25.386;2023-02-18T07:24:31;97648.53;;;7.12;68.33
8061;BME280;4073;42.626;25.386;2023-02-18T07:26:57;97650.66;;;7.27;67.08
8061;BME280;4073;42.626;25.386;2023-02-18T07:29:22;97633.59;;;7.39;66.30
8061;BME280;4073;42.626;25.386;2023-02-18T07:31:48;97636.19;;;7.51;67.54
8061;BME280;4073;42.626;25.386;2023-02-18T07:34:13;97632.97;;;7.65;67.35
8061;BME280;4073;42.626;25.386;2023-02-18T07:36:38;97635.47;;;7.88;67.13
8061;BME280;4073;42.626;25.386;2023-02-18T07:39:04;97634.38;;;8.06;66.96
8061;BME280;4073;42.626;25.386;2023-02-18T07:41:29;97620.75;;;8.19;65.63
8061;BME280;4073;42.626;25.386;2023-02-18T07:43:55;97639.34;;;8.52;65.40
8061;BME280;4073;42.626;25.386;2023-02-18T07:46:20;97635.50;;;8.65;64.59
8061;BME280;4073;42.626;25.386;2023-02-18T07:48:46;97634.56;;;8.76;64.57
8061;BME280;4073;42.626;25.386;2023-02-18T07:51:12;97627.00;;;8.89;63.86
8061;BME280;4073;42.626;25.386;2023-02-18T07:53:37;97635.97;;;9.05;63.08
8061;BME280;4073;42.626;25.386;2023-02-18T07:56:03;97642.16;;;9.10;62.10
8061;BME280;4073;42.626;25.386;2023-02-18T07:58:33;97637.75;;;9.21;61.87
8061;BME280;4073;42.626;25.386;2023-02-18T08:01:02;97610.00;;;9.22;60.97
8061;BME280;4073;42.626;25.386;2023-02-18T08:03:30;97608.78;;;9.34;61.10
8061;BME280;4073;42.626;25.386;2023-02-18T08:05:56;97624.91;;;9.44;61.10
8061;BME280;4073;42.626;25.386;2023-02-18T08:08:27;97623.41;;;9.58;60.49
8061;BME280;4073;42.626;25.386;2023-02-18T08:10:57;97618.13;;;9.63;60.30
8061;BME280;4073;42.626;25.386;2023-02-18T08:13:23;97622.50;;;9.74;58.53
8061;BME280;4073;42.626;25.386;2023-02-18T08:15:49;97632.09;;;9.75;57.33
8061;BME280;4073;42.626;25.386;2023-02-18T08:18:20;97615.28;;;9.75;57.67
8061;BME280;4073;42.626;25.386;2023-02-18T08:20:47;97601.72;;;9.81;57.36
8061;BME280;4073;42.626;25.386;2023-02-18T08:23:13;97615.72;;;9.98;56.15
8061;BME280;4073;42.626;25.386;2023-02-18T08:25:39;97610.75;;;10.07;56.31
8061;BME280;4073;42.626;25.386;2023-02-18T08:28:05;97602.72;;;10.07;56.64
8061;BME280;4073;42.626;25.386;2023-02-18T08:30:31;97608.41;;;10.15;58.16
8061;BME280;4073;42.626;25.386;2023-02-18T08:32:57;97611.94;;;10.26;59.31
8061;BME280;4073;42.626;25.386;2023-02-18T08:35:22;97616.28;;;10.37;59.56
8061;BME280;4073;42.626;25.386;2023-02-18T08:37:48;97623.56;;;10.52;58.92
8061;BME280;4073;42.626;25.386;2023-02-18T08:40:13;97606.72;;;10.51;58.42
8061;BME280;4073;42.626;25.386;2023-02-18T08:42:39;97611.28;;;10.56;58.24
8061;BME280;4073;42.626;25.386;2023-02-18T08:45:05;97613.00;;;10.87;58.23
8061;BME280;4073;42.626;25.386;2023-02-18T08:47:31;97608.31;;;11.49;56.16
8061;BME280;4073;42.626;25.386;2023-02-18T08:49:57;97609.19;;;11.99;54.17
8061;BME280;4073;42.626;25.386;2023-02-18T08:52:22;97606.50;;;12.93;52.09
8061;BME280;4073;42.626;25.386;2023-02-18T08:54:48;97591.69;;;14.40;47.87
8061;BME280;4073;42.626;25.386;2023-02-18T08:57:14;97596.22;;;15.10;45.02
8061;BME280;4073;42.626;25.386;2023-02-18T08:59:39;97598.25;;;15.41;43.76
8061;BME280;4073;42.626;25.386;2023-02-18T09:02:05;97588.81;;;15.57;42.68
8061;BME280;4073;42.626;25.386;2023-02-18T09:04:31;97603.16;;;15.34;42.98
8061;BME280;4073;42.626;25.386;2023-02-18T09:06:56;97595.84;;;14.98;43.96
8061;BME280;4073;42.626;25.386;2023-02-18T09:09:22;97579.91;;;15.01;44.02
8061;BME280;4073;42.626;25.386;2023-02-18T09:11:47;97588.66;;;14.93;43.46
8061;BME280;4073;42.626;25.386;2023-02-18T09:14:13;97576.91;;;14.84;43.32
8061;BME280;4073;42.626;25.386;2023-02-18T09:16:40;97572.94;;;15.00;43.25
8061;BME280;4073;42.626;25.386;2023-02-18T09:19:05;97573.75;;;15.38;42.22
8061;BME280;4073;42.626;25.386;2023-02-18T09:21:31;97565.44;;;16.17;39.63
8061;BME280;4073;42.626;25.386;2023-02-18T09:23:57;97552.00;;;16.58;38.69
8061;BME280;4073;42.626;25.386;2023-02-18T09:26:23;97557.38;;;16.85;37.64
8061;BME280;4073;42.626;25.386;2023-02-18T09:28:51;97557.06;;;17.00;37.29
8061;BME280;4073;42.626;25.386;2023-02-18T09:31:20;97559.31;;;17.55;36.13
8061;BME280;4073;42.626;25.386;2023-02-18T09:33:49;97549.72;;;17.93;34.69
8061;BME280;4073;42.626;25.386;2023-02-18T09:36:15;97552.78;;;18.00;33.94
8061;BME280;4073;42.626;25.386;2023-02-18T09:38:41;97562.53;;;17.57;34.33
8061;BME280;4073;42.626;25.386;2023-02-18T09:41:13;97544.16;;;16.97;35.07
8061;BME280;4073;42.626;25.386;2023-02-18T09:43:45;97538.88;;;16.78;35.71
8061;BME280;4073;42.626;25.386;2023-02-18T09:46:31;97552.19;;;16.48;35.95
8061;BME280;4073;42.626;25.386;2023-02-18T09:49:02;97558.13;;;16.04;37.14
8061;BME280;4073;42.626;25.386;2023-02-18T09:51:28;97544.22;;;15.97;37.60
8061;BME280;4073;42.626;25.386;2023-02-18T09:53:53;97532.28;;;16.17;37.79
8061;BME280;4073;42.626;25.386;2023-02-18T09:56:30;97546.97;;;16.78;37.38
8061;BME280;4073;42.626;25.386;2023-02-18T09:58:58;97546.91;;;17.76;35.01
8061;BME280;4073;42.626;25.386;2023-02-18T10:01:33;97531.06;;;18.92;33.45
8061;BME280;4073;42.626;25.386;2023-02-18T10:04:20;97537.91;;;20.17;31.52
8061;BME280;4073;42.626;25.386;2023-02-18T10:06:49;97522.97;;;20.41;30.70
8061;BME280;4073;42.626;25.386;2023-02-18T10:09:45;97523.22;;;20.01;30.60
8061;BME280;4073;42.626;25.386;2023-02-18T10:12:16;97517.88;;;19.33;31.65
8061;BME280;4073;42.626;25.386;2023-02-18T10:14:43;97520.00;;;18.80;32.76
8061;BME280;4073;42.626;25.386;2023-02-18T10:17:14;97536.66;;;18.48;33.46
8061;BME280;4073;42.626;25.386;2023-02-18T10:19:42;97538.28;;;17.96;34.60
8061;BME280;4073;42.626;25.386;2023-02-18T10:22:10;97527.44;;;18.19;34.60
8061;BME280;4073;42.626;25.386;2023-02-18T10:24:48;97520.25;;;18.53;34.80
8061;BME280;4073;42.626;25.386;2023-02-18T10:27:32;97525.56;;;18.67;33.93
8061;BME280;4073;42.626;25.386;2023-02-18T10:32:39;97529.25;;;18.32;34.41
8061;BME280;4073;42.626;25.386;2023-02-18T10:41:06;97512.28;;;19.13;33.64
8061;BME280;4073;42.626;25.386;2023-02-18T10:49:54;97501.63;;;19.33;33.19
8061;BME280;4073;42.626;25.386;2023-02-18T10:52:21;97491.38;;;18.96;33.83
8061;BME280;4073;42.626;25.386;2023-02-18T10:54:52;97490.69;;;18.65;33.62
8061;BME280;4073;42.626;25.386;2023-02-18T10:57:22;97485.44;;;18.30;34.23
8061;BME280;4073;42.626;25.386;2023-02-18T11:02:40;97489.66;;;17.74;35.07
8061;BME280;4073;42.626;25.386;2023-02-18T11:05:26;97486.47;;;18.03;35.11
8061;BME280;4073;42.626;25.386;2023-02-18T11:08:00;97493.72;;;18.25;34.57
8061;BME280;4073;42.626;25.386;2023-02-18T11:10:32;97487.16;;;18.17;34.48
8061;BME280;4073;42.626;25.386;2023-02-18T11:13:02;97480.66;;;18.27;34.39
8061;BME280;4073;42.626;25.386;2023-02-18T11:15:30;97478.28;;;18.34;34.32
8061;BME280;4073;42.626;25.386;2023-02-18T11:17:58;97474.88;;;18.50;34.11
8061;BME280;4073;42.626;25.386;2023-02-18T11:20:37;97465.88;;;18.33;34.21
8061;BME280;4073;42.626;25.386;2023-02-18T11:25:33;97463.69;;;18.04;34.97
8061;BME280;4073;42.626;25.386;2023-02-18T11:28:02;97458.91;;;18.01;34.89
8061;BME280;4073;42.626;25.386;2023-02-18T11:30:33;97446.19;;;18.02;35.08
8061;BME280;4073;42.626;25.386;2023-02-18T11:33:04;97435.84;;;18.03;34.75
8061;BME280;4073;42.626;25.386;2023-02-18T11:35:31;97450.53;;;18.20;34.76
8061;BME280;4073;42.626;25.386;2023-02-18T11:37:59;97452.00;;;18.26;34.40
8061;BME280;4073;42.626;25.386;2023-02-18T11:40:32;97445.63;;;18.22;34.87
8061;BME280;4073;42.626;25.386;2023-02-18T11:45:32;97441.28;;;18.12;35.58
8061;BME280;4073;42.626;25.386;2023-02-18T11:50:33;97426.38;;;17.84;36.12
8061;BME280;4073;42.626;25.386;2023-02-18T11:52:59;97429.22;;;17.79;36.45
8061;BME280;4073;42.626;25.386;2023-02-18T11:55:28;97425.63;;;17.61;36.89
8061;BME280;4073;42.626;25.386;2023-02-18T11:58:00;97427.72;;;17.42;37.09
8061;BME280;4073;42.626;25.386;2023-02-18T12:03:46;97427.53;;;17.17;38.30
8061;BME280;4073;42.626;25.386;2023-02-18T12:06:37;97419.38;;;17.08;38.68
8061;BME280;4073;42.626;25.386;2023-02-18T12:09:26;97419.81;;;17.02;38.75
8061;BME280;4073;42.626;25.386;2023-02-18T12:11:59;97419.84;;;16.88;39.26
8061;BME280;4073;42.626;25.386;2023-02-18T12:14:25;97410.75;;;16.84;39.10
8061;BME280;4073;42.626;25.386;2023-02-18T12:19:53;97415.69;;;16.82;39.65
8061;BME280;4073;42.626;25.386;2023-02-18T12:22:43;97409.28;;;16.78;39.83
8061;BME280;4073;42.626;25.386;2023-02-18T12:44:51;97393.34;;;16.90;39.19
8061;BME280;4073;42.626;25.386;2023-02-18T12:47:37;97381.72;;;16.90;39.07
8061;BME280;4073;42.626;25.386;2023-02-18T12:57:55;97378.84;;;17.08;38.49
8061;BME280;4073;42.626;25.386;2023-02-18T13:00:45;97374.91;;;17.14;39.22
8061;BME280;4073;42.626;25.386;2023-02-18T13:09:07;97371.28;;;17.19;39.00
8061;BME280;4073;42.626;25.386;2023-02-18T13:11:53;97368.91;;;17.17;39.47
8061;BME280;4073;42.626;25.386;2023-02-18T13:14:42;97380.53;;;17.18;39.78
8061;BME280;4073;42.626;25.386;2023-02-18T13:17:12;97354.00;;;16.98;40.16
8061;BME280;4073;42.626;25.386;2023-02-18T13:19:46;97363.13;;;17.10;40.40
8061;BME280;4073;42.626;25.386;2023-02-18T13:22:16;97369.16;;;17.07;40.80
8061;BME280;4073;42.626;25.386;2023-02-18T13:24:44;97381.50;;;17.00;40.99
8061;BME280;4073;42.626;25.386;2023-02-18T13:33:10;97377.06;;;16.82;41.25
8061;BME280;4073;42.626;25.386;2023-02-18T13:35:46;97378.72;;;16.91;41.24
8061;BME280;4073;42.626;25.386;2023-02-18T13:40:59;97378.13;;;16.94;40.99
8061;BME280;4073;42.626;25.386;2023-02-18T13:46:23;97377.81;;;16.96;41.12
8061;BME280;4073;42.626;25.386;2023-02-18T13:51:28;97370.47;;;16.88;41.90
8061;BME280;4073;42.626;25.386;2023-02-18T13:54:03;97370.38;;;16.79;41.75
8061;BME280;4073;42.626;25.386;2023-02-18T13:56:32;97368.97;;;16.60;42.65
8061;BME280;4073;42.626;25.386;2023-02-18T13:59:14;97357.66;;;16.58;43.37
8061;BME280;4073;42.626;25.386;2023-02-18T14:01:48;97354.91;;;16.49;43.27
8061;BME280;4073;42.626;25.386;2023-02-18T14:10:04;97358.69;;;16.35;43.55
8061;BME280;4073;42.626;25.386;2023-02-18T14:28:51;97366.34;;;16.06;44.32
8061;BME280;4073;42.626;25.386;2023-02-18T14:34:28;97365.16;;;15.98;44.47
8061;BME280;4073;42.626;25.386;2023-02-18T14:43:23;97362.88;;;15.78;44.85
8061;BME280;4073;42.626;25.386;2023-02-18T14:48:45;97350.69;;;15.67;45.83
8061;BME280;4073;42.626;25.386;2023-02-18T14:51:15;97358.25;;;15.65;46.01
8061;BME280;4073;42.626;25.386;2023-02-18T14:53:44;97343.00;;;15.47;46.31
8061;BME280;4073;42.626;25.386;2023-02-18T14:56:13;97349.59;;;15.55;46.19
8061;BME280;4073;42.626;25.386;2023-02-18T14:58:42;97347.47;;;15.65;46.41
8061;BME280;4073;42.626;25.386;2023-02-18T15:01:34;97351.09;;;15.74;46.33
8061;BME280;4073;42.626;25.386;2023-02-18T15:04:01;97339.88;;;15.81;46.10
8061;BME280;4073;42.626;25.386;2023-02-18T15:06:33;97342.28;;;15.82;45.74
8061;BME280;4073;42.626;25.386;2023-02-18T15:09:01;97347.78;;;15.77;45.69
8061;BME280;4073;42.626;25.386;2023-02-18T15:11:37;97346.47;;;15.75;45.80
8061;BME280;4073;42.626;25.386;2023-02-18T15:14:09;97350.50;;;15.77;45.58
8061;BME280;4073;42.626;25.386;2023-02-18T15:16:36;97349.38;;;15.78;45.59
8061;BME280;4073;42.626;25.386;2023-02-18T15:19:05;97342.91;;;15.66;45.43
8061;BME280;4073;42.626;25.386;2023-02-18T15:21:35;97338.50;;;15.70;45.06
8061;BME280;4073;42.626;25.386;2023-02-18T15:24:18;97344.72;;;15.70;44.97
8061;BME280;4073;42.626;25.386;2023-02-18T15:26:47;97343.78;;;15.75;44.73
8061;BME280;4073;42.626;25.386;2023-02-18T15:29:24;97348.69;;;15.73;44.94
8061;BME280;4073;42.626;25.386;2023-02-18T15:31:50;97346.38;;;15.66;44.53
8061;BME280;4073;42.626;25.386;2023-02-18T15:34:30;97342.91;;;15.66;44.61
8061;BME280;4073;42.626;25.386;2023-02-18T15:36:59;97344.59;;;15.62;44.82
8061;BME280;4073;42.626;25.386;2023-02-18T15:39:25;97346.78;;;15.60;44.44
8061;BME280;4073;42.626;25.386;2023-02-18T15:41:53;97342.28;;;15.55;44.71
8061;BME280;4073;42.626;25.386;2023-02-18T15:44:22;97347.19;;;15.53;44.50
8061;BME280;4073;42.626;25.386;2023-02-18T15:46:49;97348.47;;;15.42;44.78
8061;BME280;4073;42.626;25.386;2023-02-18T15:49:19;97348.28;;;15.38;44.81
8061;BME280;4073;42.626;25.386;2023-02-18T15:51:47;97354.47;;;15.39;44.68